Lower Matecumbe Key, Florida
Current Conditions -  °F | °C
As of 7:53 PM on Saturday 20 Dec 2014 (Local Time) from KMTH Reporting Station
Broken Clouds Broken Clouds  
Wind Chill: 73°   Ceiling: 11000
Heat Index: 73°   Visibility: 10mi
Dew Point: 68°   Wind: 3mph
Humidity: 84%   Direction: 80°E
Pressure: 30.06"   Gusts: NA
Location:  24.8649°N, 80.7192°W
Report Text: KMTH 210053Z AUTO 08003KT 10SM BKN110 23/20 A3006 RMK AO2 SLP177 T02280200
Loading
Personal Weather Stations






























Interactive Weather Map New forecast layout! Learn more

10-Day Weather Forecast

Advertisements
Track Severe Weather on mobile